CDT,Max TemperatureF,Mean TemperatureF,Min TemperatureF,Max Dew PointF,MeanDew PointF,Min DewpointF,Max Humidity, Mean Humidity, Min Humidity, Max Sea Level PressureIn, Mean Sea Level PressureIn, Min Sea Level PressureIn, Max VisibilityMiles, Mean VisibilityMiles, Min VisibilityMiles, Max Wind SpeedMPH, Mean Wind SpeedMPH, Max Gust SpeedMPH,PrecipitationIn, CloudCover, Events, WindDirDegrees
2013-5-1,82,71,60,59,54,50,72,56,39,30.05,29.99,29.91,10,10,10,16,9,21,0.00,3,,149
2013-5-2,70,53,36,59,42,34,96,82,67,30.25,30.20,30.05,10,9,2,22,14,28,0.16,7,Rain,344
2013-5-3,39,37,35,37,35,33,100,93,85,30.18,30.00,29.86,10,6,2,20,13,23,0.68,8,Rain-Snow,326
2013-5-4,51,43,35,41,36,34,100,83,65,30.03,29.91,29.82,10,9,2,15,7,17,T,7,Rain,75
2013-5-5,64,52,40,56,47,39,100,84,67,30.05,30.00,29.94,10,6,0,23,9,28,0.35,7,Fog-Rain,327
2013-5-6,74,64,54,55,53,52,100,75,49,30.04,30.00,29.96,10,8,3,18,9,23,0.00,7,,337
2013-5-7,79,66,52,55,50,47,89,62,35,30.05,30.01,29.98,10,10,10,10,6,14,0.00,0,,336
2013-5-8,78,67,55,60,54,47,84,64,43,30.03,29.99,29.95,10,10,10,20,7,24,T,3,Rain,156
2013-5-9,75,68,60,62,59,55,93,73,53,29.93,29.89,29.84,10,10,5,22,9,27,0.10,5,Rain,217
2013-5-10,62,55,48,59,55,49,93,84,75,30.03,29.96,29.86,10,9,2,15,8,18,0.07,7,Rain-Thunderstorm,324
2013-5-11,66,54,42,52,41,30,93,62,31,30.21,30.09,30.03,10,8,2,26,12,33,0.00,0,,307
2013-5-12,63,50,37,32,29,26,76,52,27,30.28,30.22,30.16,10,10,10,17,7,22,0.00,0,,319
2013-5-13,74,57,39,48,41,29,79,58,36,30.21,30.12,29.99,10,10,7,14,7,18,0.00,0,,172
2013-5-14,89,72,54,55,52,49,80,54,27,29.96,29.88,29.82,10,10,10,25,14,35,0.00,0,,216
2013-5-15,87,76,65,66,60,51,79,64,48,29.92,29.87,29.82,10,10,10,18,11,25,0.00,0,,223
2013-5-16,80,71,61,66,61,52,87,73,58,29.94,29.89,29.85,10,10,10,17,7,21,0.04,4,Rain,168
2013-5-17,78,69,59,63,59,53,87,74,60,29.96,29.92,29.88,10,10,10,12,5,15,0.00,5,,140
2013-5-18,84,73,62,67,64,61,100,78,55,29.99,29.92,29.82,10,7,0,16,8,20,0.00,3,Fog,133
2013-5-19,89,77,65,72,67,62,97,72,46,29.89,29.78,29.62,10,8,3,33,13,44,0.02,2,Rain-Thunderstorm,164
2013-5-20,78,70,61,68,62,58,93,77,60,29.89,29.76,29.68,10,8,1,37,13,50,1.48,7,Rain-Thunderstorm,198
2013-5-21,74,68,61,63,60,58,93,75,57,29.77,29.73,29.67,10,10,10,20,10,26,0.00,3,,213
2013-5-22,69,63,56,58,55,52,93,76,58,29.90,29.78,29.69,10,10,10,20,10,28,0.00,6,,260
2013-5-23,66,59,51,55,52,49,93,80,67,30.22,30.08,29.91,10,10,10,20,10,25,T,7,Rain,327
2013-5-24,70,59,48,51,45,39,96,66,35,30.40,30.30,30.22,10,9,2,16,9,23,0.00,0,,110
2013-5-25,74,64,53,63,51,40,84,70,55,30.25,30.19,30.07,10,10,5,18,10,23,0.17,3,Rain-Thunderstorm,124
2013-5-26,84,72,59,69,63,57,93,74,55,30.14,30.04,29.96,10,10,10,20,9,24,0.01,3,Rain-Thunderstorm,138
2013-5-27,73,68,62,67,63,59,93,83,73,30.04,29.89,29.76,10,8,0,30,10,39,1.41,5,Fog-Rain-Thunderstorm,152
2013-5-28,78,73,67,71,67,63,87,80,73,29.87,29.80,29.73,10,10,10,25,11,33,0.03,4,Rain-Thunderstorm,175
2013-5-29,84,76,68,68,65,60,87,71,55,29.89,29.85,29.75,10,10,10,22,13,31,0.00,2,,161
2013-5-30,83,73,63,68,63,61,100,79,58,29.83,29.79,29.72,10,7,1,30,13,38,1.61,6,Rain-Thunderstorm,205
2013-5-31,82,72,61,73,63,56,100,90,79,29.89,29.78,29.69,10,7,0,31,12,40,3.66,7,Fog-Rain-Thunderstorm,128